createdAt,value
2022-11-26T00:00:59.359Z,102354.63
2022-11-26T00:03:25.967Z,102356.38
2022-11-26T00:05:56.639Z,102352.06
2022-11-26T00:08:30.299Z,102365.88
2022-11-26T00:10:56.837Z,102362.44
2022-11-26T00:13:26.741Z,102365.03
2022-11-26T00:15:53.884Z,102372.78
2022-11-26T00:18:23.439Z,102371.09
2022-11-26T00:20:59.769Z,102372.81
2022-11-26T00:23:28.458Z,102380.56
2022-11-26T00:26:04.029Z,102380.56
2022-11-26T00:28:37.306Z,102382.28
2022-11-26T00:31:12.847Z,102381.44
2022-11-26T00:33:39.448Z,102382.31
2022-11-26T00:36:25.322Z,102390.06
2022-11-26T00:38:56.763Z,102385.75
2022-11-26T00:41:26.195Z,102394.38
2022-11-26T00:43:52.870Z,102406.44
2022-11-26T00:46:22.704Z,102409.91
2022-11-26T00:48:49.533Z,102410.75
2022-11-26T00:51:36.654Z,102415.06
2022-11-26T00:54:04.187Z,102417.66
2022-11-26T00:56:36.489Z,102423.69
2022-11-26T00:59:04.459Z,102423.69
2022-11-26T01:01:32.861Z,102431.44
2022-11-26T01:03:59.559Z,102430.56
2022-11-26T01:06:32.766Z,102428.84
2022-11-26T01:08:59.593Z,102430.56
2022-11-26T01:11:26.566Z,102440.03
2022-11-26T01:13:54.709Z,102440.03
2022-11-26T01:16:30.420Z,102435.72
2022-11-26T01:18:59.959Z,102442.59
2022-11-26T01:21:29.849Z,102440.88
2022-11-26T01:23:57.214Z,102442.59
2022-11-26T01:26:27.550Z,102444.31
2022-11-26T01:28:55.247Z,102455.50
2022-11-26T01:31:25.679Z,102446.03
2022-11-26T01:33:52.627Z,102455.53
2022-11-26T01:36:24.929Z,102446.91
2022-11-26T01:38:56.765Z,102446.03
2022-11-26T01:41:48.317Z,102453.78
2022-11-26T01:44:20.920Z,102448.63
2022-11-26T01:46:48.432Z,102441.75
2022-11-26T01:49:23.383Z,102453.81
2022-11-26T01:52:19.957Z,102447.78
2022-11-26T01:54:47.440Z,102452.97
2022-11-26T01:57:33.996Z,102454.69
2022-11-26T02:00:04.200Z,102451.25
2022-11-26T02:02:30.882Z,102455.56
2022-11-26T02:05:09.467Z,102451.25
2022-11-26T02:07:36.821Z,102459.84
2022-11-26T02:10:04.004Z,102454.72
2022-11-26T02:12:30.858Z,102447.81
2022-11-26T02:14:57.380Z,102446.97
2022-11-26T02:17:39.685Z,102449.56
2022-11-26T02:20:35.359Z,102457.31
2022-11-26T02:23:20.350Z,102455.59
2022-11-26T02:26:01.903Z,102453.00
2022-11-26T02:28:50.166Z,102450.41
2022-11-26T02:31:25.933Z,102448.69
2022-11-26T02:34:00.126Z,102459.91
2022-11-26T02:36:42.744Z,102458.16
2022-11-26T02:39:12.240Z,102448.69
2022-11-26T02:41:44.497Z,102445.25
2022-11-26T02:44:12.151Z,102441.81
2022-11-26T02:46:40.646Z,102452.16
2022-11-26T02:49:11.207Z,102452.13
2022-11-26T02:51:38.899Z,102453.00
2022-11-26T02:54:08.656Z,102458.16
2022-11-26T02:56:36.402Z,102454.72
2022-11-26T02:59:04.338Z,102450.41
2022-11-26T03:01:38.445Z,102457.31
2022-11-26T03:04:16.151Z,102455.56
2022-11-26T03:06:43.194Z,102458.16
2022-11-26T03:09:09.821Z,102460.75
2022-11-26T03:11:36.298Z,102459.88
2022-11-26T03:14:02.850Z,102460.72
2022-11-26T03:16:30.291Z,102461.59
2022-11-26T03:18:56.823Z,102467.59
2022-11-26T03:21:23.696Z,102469.34
2022-11-26T03:23:50.139Z,102466.75
2022-11-26T03:26:16.751Z,102473.63
2022-11-26T03:28:43.285Z,102485.66
2022-11-26T03:31:09.953Z,102494.28
2022-11-26T03:33:36.473Z,102488.22
2022-11-26T03:36:03.003Z,102490.81
2022-11-26T03:38:29.495Z,102491.66
2022-11-26T03:41:01.439Z,102485.66
2022-11-26T03:43:28.078Z,102488.22
2022-11-26T03:45:54.687Z,102502.84
2022-11-26T03:48:21.547Z,102508.00
2022-11-26T03:50:48.041Z,102513.19
2022-11-26T03:53:14.580Z,102523.50
2022-11-26T03:55:41.025Z,102528.66
2022-11-26T03:58:07.488Z,102529.53
2022-11-26T04:00:34.436Z,102529.53
2022-11-26T04:03:01.094Z,102523.53
2022-11-26T04:05:27.858Z,102518.34
2022-11-26T04:07:54.412Z,102526.97
2022-11-26T04:10:21.251Z,102530.44
2022-11-26T04:12:47.794Z,102530.41
2022-11-26T04:15:14.392Z,102541.63
2022-11-26T04:17:41.276Z,102545.06
2022-11-26T04:20:08.408Z,102540.75
2022-11-26T04:22:34.837Z,102545.91
2022-11-26T04:25:01.738Z,102551.94
2022-11-26T04:27:28.256Z,102554.50
2022-11-26T04:29:54.739Z,102549.34
2022-11-26T04:32:21.650Z,102559.69
2022-11-26T04:34:48.143Z,102565.69
2022-11-26T04:37:14.799Z,102566.56
2022-11-26T04:39:41.318Z,102570.84
2022-11-26T04:42:08.066Z,102570.00
2022-11-26T04:44:34.636Z,102575.22
2022-11-26T04:47:01.317Z,102579.53
2022-11-26T04:49:27.840Z,102573.50
2022-11-26T04:51:54.274Z,102578.66
2022-11-26T04:54:20.891Z,102578.66
2022-11-26T04:56:47.392Z,102575.25
2022-11-26T04:59:13.927Z,102576.09
2022-11-26T05:01:40.477Z,102581.22
2022-11-26T05:04:06.966Z,102583.81
2022-11-26T05:06:33.574Z,102590.72
2022-11-26T05:09:00.095Z,102597.59
2022-11-26T05:11:26.594Z,102596.72
2022-11-26T05:13:53.025Z,102593.28
2022-11-26T05:16:19.462Z,102602.72
2022-11-26T05:18:46.341Z,102603.59
2022-11-26T05:21:12.942Z,102607.06
2022-11-26T05:23:39.378Z,102598.44
2022-11-26T05:26:06.027Z,102602.75
2022-11-26T05:28:32.500Z,102597.59
2022-11-26T05:31:02.984Z,102611.34
2022-11-26T05:33:30.172Z,102607.88
2022-11-26T05:35:56.716Z,102612.22
2022-11-26T05:38:23.551Z,102613.94
2022-11-26T05:40:50.113Z,102613.09
2022-11-26T05:43:16.940Z,102621.69
2022-11-26T05:45:43.686Z,102619.97
2022-11-26T05:48:10.246Z,102619.09
2022-11-26T05:50:36.742Z,102620.81
2022-11-26T05:53:03.251Z,102620.84
2022-11-26T05:55:29.976Z,102627.69
2022-11-26T05:57:56.495Z,102625.13
2022-11-26T06:00:23.295Z,102625.97
2022-11-26T06:02:49.891Z,102617.34
2022-11-26T06:05:16.630Z,102618.22
2022-11-26T06:07:44.979Z,102625.09
2022-11-26T06:10:12.969Z,102630.28
2022-11-26T06:12:39.445Z,102631.97
2022-11-26T06:15:06.578Z,102622.53
2022-11-26T06:17:33.071Z,102623.34
2022-11-26T06:19:59.913Z,102631.97
2022-11-26T06:22:26.366Z,102645.72
2022-11-26T06:24:52.957Z,102638.00
2022-11-26T06:27:19.424Z,102636.28
2022-11-26T06:29:45.860Z,102635.38
2022-11-26T06:32:12.370Z,102637.06
2022-11-26T06:34:39.250Z,102634.47
2022-11-26T06:37:06.653Z,102633.63
2022-11-26T06:39:33.138Z,102632.75
2022-11-26T06:41:59.551Z,102636.19
2022-11-26T06:44:25.976Z,102639.59
2022-11-26T06:46:52.435Z,102643.94
2022-11-26T06:49:18.903Z,102637.88
2022-11-26T06:51:45.321Z,102645.63
2022-11-26T06:54:11.786Z,102649.94
2022-11-26T06:56:39.430Z,102643.91
2022-11-26T06:59:05.875Z,102650.78
2022-11-26T07:01:32.466Z,102664.56
2022-11-26T07:03:59.683Z,102659.38
2022-11-26T07:06:28.562Z,102667.13
2022-11-26T07:08:57.572Z,102668.81
2022-11-26T07:11:25.155Z,102677.34
2022-11-26T07:13:52.430Z,102680.81
2022-11-26T07:16:19.034Z,102694.53
2022-11-26T07:18:50.742Z,102698.84
2022-11-26T07:21:17.976Z,102701.38
2022-11-26T07:23:44.419Z,102706.56
2022-11-26T07:26:12.930Z,102710.91
2022-11-26T07:28:40.072Z,102705.72
2022-11-26T07:31:16.453Z,102701.50
2022-11-26T07:33:43.661Z,102706.66
2022-11-26T07:36:16.377Z,102710.09
2022-11-26T07:38:42.817Z,102705.81
2022-11-26T07:41:12.380Z,102711.00
2022-11-26T07:43:41.092Z,102703.25
2022-11-26T07:46:09.662Z,102694.72
2022-11-26T07:48:37.026Z,102694.72
2022-11-26T07:51:04.346Z,102699.03
2022-11-26T07:53:32.025Z,102697.31
2022-11-26T07:55:59.034Z,102703.34
2022-11-26T07:58:26.917Z,102699.91
2022-11-26T08:00:55.002Z,102705.94
2022-11-26T08:03:22.059Z,102707.66
2022-11-26T08:05:48.493Z,102711.13
2022-11-26T08:08:14.983Z,102709.41
2022-11-26T08:10:41.558Z,102709.44
2022-11-26T08:13:08.221Z,102711.16
2022-11-26T08:15:35.590Z,102709.38
2022-11-26T08:18:02.060Z,102710.31
2022-11-26T08:20:31.037Z,102702.59
2022-11-26T08:22:57.468Z,102714.66
2022-11-26T08:25:23.953Z,102712.03
2022-11-26T08:27:50.426Z,102711.22
2022-11-26T08:30:17.176Z,102720.66
2022-11-26T08:32:43.701Z,102717.25
2022-11-26T08:35:10.141Z,102720.69
2022-11-26T08:37:36.843Z,102724.03
2022-11-26T08:40:04.087Z,102724.06
2022-11-26T08:42:30.977Z,102729.31
2022-11-26T08:44:57.445Z,102737.88
2022-11-26T08:47:23.930Z,102741.38
2022-11-26T08:49:50.367Z,102747.34
2022-11-26T08:52:16.871Z,102747.44
2022-11-26T08:54:45.244Z,102743.13
2022-11-26T08:57:12.422Z,102753.47
2022-11-26T08:59:38.887Z,102743.97
2022-11-26T09:02:05.432Z,102753.50
2022-11-26T09:04:32.163Z,102756.94
2022-11-26T09:06:58.596Z,102755.25
2022-11-26T09:09:25.358Z,102761.31
2022-11-26T09:11:56.497Z,102753.59
2022-11-26T09:14:25.120Z,102755.34
2022-11-26T09:16:52.486Z,102760.53
2022-11-26T09:19:19.125Z,102760.50
2022-11-26T09:21:46.605Z,102756.19
2022-11-26T09:24:13.802Z,102764.84
2022-11-26T09:26:40.740Z,102747.63
2022-11-26T09:29:07.308Z,102756.22
2022-11-26T09:31:34.130Z,102751.97
2022-11-26T09:34:02.522Z,102749.38
2022-11-26T09:36:29.327Z,102756.28
2022-11-26T09:38:57.761Z,102751.97
2022-11-26T09:41:24.171Z,102751.13
2022-11-26T09:44:21.149Z,102758.00
2022-11-26T09:47:13.084Z,102764.03
2022-11-26T09:49:57.977Z,102757.13
2022-11-26T09:52:30.466Z,102759.75
2022-11-26T09:55:21.899Z,102758.91
2022-11-26T09:57:59.241Z,102762.34
2022-11-26T10:00:48.006Z,102755.44
2022-11-26T10:03:17.160Z,102756.31
2022-11-26T10:06:24.866Z,102759.75
2022-11-26T10:09:13.177Z,102749.44
2022-11-26T10:11:58.889Z,102748.56
2022-11-26T10:15:02.174Z,102758.06
2022-11-26T10:17:39.720Z,102749.44
2022-11-26T10:20:32.803Z,102749.44
2022-11-26T10:23:07.624Z,102751.19
2022-11-26T10:25:40.255Z,102751.19
2022-11-26T10:28:20.068Z,102763.25
2022-11-26T10:31:02.662Z,102771.88
2022-11-26T10:33:34.021Z,102768.41
2022-11-26T10:36:00.741Z,102757.22
2022-11-26T10:38:27.375Z,102758.06
2022-11-26T10:40:53.966Z,102761.50
2022-11-26T10:43:24.622Z,102753.75
2022-11-26T10:45:54.459Z,102759.78
2022-11-26T10:48:24.009Z,102752.91
2022-11-26T10:51:14.179Z,102750.28
2022-11-26T10:53:57.055Z,102748.56
2022-11-26T10:56:36.746Z,102743.41
2022-11-26T10:59:13.771Z,102745.13
2022-11-26T11:01:40.594Z,102740.81
2022-11-26T11:04:26.224Z,102745.13
2022-11-26T11:06:53.107Z,102737.38
2022-11-26T11:09:25.786Z,102738.22
2022-11-26T11:12:16.250Z,102738.22
2022-11-26T11:14:45.648Z,102736.50
2022-11-26T11:17:36.189Z,102733.91
2022-11-26T11:20:27.297Z,102740.81
2022-11-26T11:23:00.371Z,102744.25
2022-11-26T11:25:30.991Z,102744.28
2022-11-26T11:28:10.517Z,102752.03
2022-11-26T11:30:40.445Z,102745.16
2022-11-26T11:33:23.242Z,102745.16
2022-11-26T11:36:14.000Z,102739.94
2022-11-26T11:38:52.299Z,102733.91
2022-11-26T11:41:25.080Z,102740.81
2022-11-26T11:43:58.673Z,102736.47
2022-11-26T11:46:46.270Z,102726.97
2022-11-26T11:49:28.737Z,102729.59
2022-11-26T11:52:07.013Z,102718.34
2022-11-26T11:54:54.418Z,102729.56
2022-11-26T11:57:32.661Z,102728.72
2022-11-26T12:00:13.607Z,102721.78
2022-11-26T12:03:10.592Z,102721.78
2022-11-26T12:05:40.237Z,102723.53
2022-11-26T12:08:41.271Z,102717.47
2022-11-26T12:11:18.839Z,102724.38
2022-11-26T12:13:54.993Z,102726.13
2022-11-26T12:16:25.908Z,102721.78
2022-11-26T12:18:59.186Z,102723.53
2022-11-26T12:21:40.091Z,102730.41
2022-11-26T12:24:09.297Z,102722.63
2022-11-26T12:26:48.490Z,102726.09
2022-11-26T12:29:40.681Z,102732.13
2022-11-26T12:32:07.203Z,102730.41
2022-11-26T12:34:41.223Z,102727.78
2022-11-26T12:37:20.049Z,102726.06
2022-11-26T12:39:57.497Z,102724.34
2022-11-26T12:43:05.876Z,102724.34
2022-11-26T12:45:41.359Z,102717.44
2022-11-26T12:48:25.868Z,102723.47
2022-11-26T12:51:06.856Z,102723.50
2022-11-26T12:53:52.302Z,102725.19
2022-11-26T12:56:31.197Z,102718.28
2022-11-26T12:59:25.742Z,102724.31
2022-11-26T13:01:52.556Z,102722.63
2022-11-26T13:04:37.985Z,102719.16
2022-11-26T13:07:41.993Z,102721.75
2022-11-26T13:10:20.682Z,102724.34
2022-11-26T13:12:50.129Z,102720.00
2022-11-26T13:15:31.597Z,102712.25
2022-11-26T13:18:00.583Z,102716.53
2022-11-26T13:20:30.005Z,102708.78
2022-11-26T13:23:02.585Z,102716.56
2022-11-26T13:25:50.440Z,102703.63
2022-11-26T13:28:48.412Z,102701.88
2022-11-26T13:31:27.271Z,102708.81
2022-11-26T13:34:40.244Z,102701.03
2022-11-26T13:37:06.926Z,102703.59
2022-11-26T13:39:36.091Z,102703.63
2022-11-26T13:42:21.413Z,102702.72
2022-11-26T13:45:03.428Z,102703.53
2022-11-26T13:47:48.867Z,102694.94
2022-11-26T13:50:21.449Z,102681.97
2022-11-26T13:52:58.912Z,102680.22
2022-11-26T13:55:34.819Z,102669.84
2022-11-26T13:58:06.248Z,102672.38
2022-11-26T14:00:34.962Z,102662.88
2022-11-26T14:03:03.204Z,102665.47
2022-11-26T14:05:51.702Z,102655.16
2022-11-26T14:08:41.486Z,102649.97
2022-11-26T14:11:09.392Z,102646.53
2022-11-26T14:13:36.471Z,102648.28
2022-11-26T14:16:09.143Z,102651.75
2022-11-26T14:18:51.851Z,102656.06
2022-11-26T14:21:20.280Z,102657.81
2022-11-26T14:23:48.018Z,102651.78
2022-11-26T14:26:40.133Z,102651.78
2022-11-26T14:29:17.618Z,102648.31
2022-11-26T14:31:53.504Z,102649.19
2022-11-26T14:34:39.764Z,102653.50
2022-11-26T14:37:14.368Z,102658.72
2022-11-26T14:39:43.839Z,102662.19
2022-11-26T14:42:17.814Z,102663.91
2022-11-26T14:44:44.742Z,102656.13
2022-11-26T14:47:19.897Z,102660.44
2022-11-26T14:49:54.341Z,102651.81
2022-11-26T14:52:37.157Z,102659.56
2022-11-26T14:55:08.445Z,102663.03
2022-11-26T14:58:09.191Z,102652.69
2022-11-26T15:00:36.722Z,102655.28
2022-11-26T15:03:04.087Z,102654.41
2022-11-26T15:05:33.321Z,102656.13
2022-11-26T15:08:04.179Z,102657.03
2022-11-26T15:10:37.679Z,102659.63
2022-11-26T15:13:23.782Z,102655.31
2022-11-26T15:15:55.497Z,102661.34
2022-11-26T15:18:29.117Z,102663.94
2022-11-26T15:20:56.348Z,102658.78
2022-11-26T15:23:33.461Z,102663.97
2022-11-26T15:26:00.981Z,102673.47
2022-11-26T15:28:28.442Z,102676.91
2022-11-26T15:31:00.502Z,102677.78
2022-11-26T15:33:30.049Z,102670.91
2022-11-26T15:35:59.416Z,102677.78
2022-11-26T15:38:31.226Z,102669.16
2022-11-26T15:40:57.665Z,102662.25
2022-11-26T15:43:30.120Z,102655.34
2022-11-26T15:46:14.515Z,102657.94
2022-11-26T15:48:53.388Z,102661.41
2022-11-26T15:51:43.577Z,102662.28
2022-11-26T15:54:19.148Z,102663.16
2022-11-26T15:56:50.241Z,102658.84
2022-11-26T15:59:17.337Z,102661.44
2022-11-26T16:01:45.951Z,102655.41
2022-11-26T16:04:51.792Z,102662.31
2022-11-26T16:07:19.860Z,102663.16
2022-11-26T16:09:47.713Z,102659.72
2022-11-26T16:12:34.799Z,102656.28
2022-11-26T16:15:27.735Z,102646.78
2022-11-26T16:17:54.215Z,102652.84
2022-11-26T16:20:23.845Z,102650.22
2022-11-26T16:22:53.081Z,102646.81
2022-11-26T16:25:25.474Z,102642.47
2022-11-26T16:28:03.524Z,102644.22
2022-11-26T16:30:30.275Z,102650.28
2022-11-26T16:32:56.831Z,102646.81
2022-11-26T16:35:44.582Z,102649.41
2022-11-26T16:38:26.398Z,102658.03
2022-11-26T16:40:54.264Z,102654.56
2022-11-26T16:43:20.926Z,102657.19
2022-11-26T16:45:49.627Z,102660.63
2022-11-26T16:48:23.228Z,102660.63
2022-11-26T16:50:49.771Z,102664.09
2022-11-26T16:53:16.200Z,102664.94
2022-11-26T16:55:42.755Z,102665.78
2022-11-26T16:58:19.576Z,102662.34
2022-11-26T17:00:46.548Z,102656.31
2022-11-26T17:03:14.637Z,102667.53
2022-11-26T17:05:41.760Z,102665.81
2022-11-26T17:08:11.572Z,102665.78
2022-11-26T17:10:39.664Z,102660.59
2022-11-26T17:13:06.359Z,102664.06
2022-11-26T17:15:32.949Z,102664.94
2022-11-26T17:18:07.669Z,102664.94
2022-11-26T17:20:34.116Z,102659.75
2022-11-26T17:23:00.579Z,102655.44
2022-11-26T17:25:27.093Z,102662.34
2022-11-26T17:27:53.594Z,102661.47
2022-11-26T17:30:22.444Z,102667.53
2022-11-26T17:32:49.342Z,102673.53
2022-11-26T17:35:16.939Z,102666.66
2022-11-26T17:37:43.862Z,102662.34
2022-11-26T17:40:30.185Z,102655.44
2022-11-26T17:42:56.726Z,102655.44
2022-11-26T17:45:23.275Z,102645.94
2022-11-26T17:47:50.183Z,102647.69
2022-11-26T17:50:28.970Z,102641.63
2022-11-26T17:52:55.962Z,102632.19
2022-11-26T17:55:24.302Z,102627.88
2022-11-26T17:57:51.272Z,102633.03
2022-11-26T18:00:21.606Z,102635.59
2022-11-26T18:02:48.482Z,102633.03
2022-11-26T18:05:14.969Z,102631.31
2022-11-26T18:07:41.584Z,102627.84
2022-11-26T18:10:14.150Z,102638.19
2022-11-26T18:12:41.133Z,102632.16
2022-11-26T18:15:07.967Z,102630.47
2022-11-26T18:17:34.445Z,102631.31
2022-11-26T18:20:00.973Z,102625.25
2022-11-26T18:22:28.299Z,102619.25
2022-11-26T18:24:57.354Z,102619.22
2022-11-26T18:27:28.800Z,102614.94
2022-11-26T18:29:55.605Z,102611.50
2022-11-26T18:32:22.567Z,102623.53
2022-11-26T18:34:50.565Z,102623.56
2022-11-26T18:37:17.543Z,102625.25
2022-11-26T18:39:44.008Z,102625.25
2022-11-26T18:44:58.232Z,102623.53
2022-11-26T18:47:24.857Z,102621.81
2022-11-26T18:49:51.358Z,102630.41
2022-11-26T18:52:17.896Z,102626.97
2022-11-26T18:54:44.375Z,102632.16
2022-11-26T18:57:10.818Z,102629.56
2022-11-26T18:59:37.702Z,102628.72
2022-11-26T19:02:04.870Z,102628.72
2022-11-26T19:04:31.477Z,102616.63
2022-11-26T19:06:57.917Z,102619.19
2022-11-26T19:09:24.416Z,102621.78
2022-11-26T19:11:58.302Z,102620.09
2022-11-26T19:14:25.063Z,102615.75
2022-11-26T19:16:51.935Z,102604.56
2022-11-26T19:19:18.550Z,102602.84
2022-11-26T19:21:45.013Z,102608.88
2022-11-26T19:24:12.622Z,102594.22
2022-11-26T19:26:41.277Z,102592.50
2022-11-26T19:29:09.135Z,102583.03
2022-11-26T19:31:39.011Z,102587.31
2022-11-26T19:34:12.507Z,102587.34
2022-11-26T19:36:39.353Z,102588.16
2022-11-26T19:39:06.996Z,102583.88
2022-11-26T19:41:33.758Z,102587.34
2022-11-26T19:44:01.046Z,102582.16
2022-11-26T19:46:27.915Z,102583.00
2022-11-26T19:48:55.656Z,102579.56
2022-11-26T19:51:24.473Z,102582.16
2022-11-26T19:53:53.670Z,102586.47
2022-11-26T19:56:30.995Z,102577.81
2022-11-26T19:58:58.982Z,102583.00
2022-11-26T20:01:27.450Z,102571.81
2022-11-26T20:03:54.217Z,102570.06
2022-11-26T20:06:26.258Z,102569.22
2022-11-26T20:08:53.347Z,102570.91
2022-11-26T20:11:20.207Z,102586.41
2022-11-26T20:13:48.798Z,102578.66
2022-11-26T20:16:19.380Z,102585.56
2022-11-26T20:18:46.697Z,102595.91
2022-11-26T20:21:15.411Z,102598.50
2022-11-26T20:23:42.703Z,102579.56
2022-11-26T20:26:30.326Z,102592.47
2022-11-26T20:29:00.827Z,102598.47
2022-11-26T20:31:27.596Z,102606.22
2022-11-26T20:33:54.873Z,102601.91
2022-11-26T20:36:23.201Z,102613.13
2022-11-26T20:38:54.556Z,102611.38
2022-11-26T20:41:22.161Z,102616.56
2022-11-26T20:43:53.535Z,102626.03
2022-11-26T20:46:23.535Z,102628.63
2022-11-26T20:48:50.206Z,102624.28
2022-11-26T20:51:19.324Z,102634.63
2022-11-26T20:53:50.510Z,102637.19
2022-11-26T20:56:19.216Z,102638.94
2022-11-26T20:58:46.169Z,102632.94
2022-11-26T21:01:22.565Z,102628.63
2022-11-26T21:03:50.224Z,102632.94
2022-11-26T21:06:18.929Z,102627.75
2022-11-26T21:08:45.822Z,102633.78
2022-11-26T21:11:13.439Z,102634.63
2022-11-26T21:13:40.641Z,102638.94
2022-11-26T21:16:11.687Z,102623.41
2022-11-26T21:18:38.492Z,102624.28
2022-11-26T21:21:13.311Z,102629.44
2022-11-26T21:23:40.784Z,102626.84
2022-11-26T21:26:09.832Z,102620.81
2022-11-26T21:28:36.827Z,102620.81
2022-11-26T21:31:14.474Z,102620.81
2022-11-26T21:33:41.013Z,102614.81
2022-11-26T21:36:13.750Z,102608.78
2022-11-26T21:38:43.622Z,102603.63
2022-11-26T21:41:12.647Z,102601.06
2022-11-26T21:43:44.109Z,102601.06
2022-11-26T21:46:15.816Z,102602.78
2022-11-26T21:48:42.514Z,102593.28
2022-11-26T21:51:15.518Z,102582.09
2022-11-26T21:53:42.824Z,102574.34
2022-11-26T21:56:16.600Z,102572.63
2022-11-26T21:58:43.621Z,102563.16
2022-11-26T22:01:24.683Z,102550.25
2022-11-26T22:03:56.865Z,102545.09
2022-11-26T22:06:24.267Z,102535.59
2022-11-26T22:08:51.265Z,102533.91
2022-11-26T22:11:23.777Z,102527.84
2022-11-26T22:13:51.420Z,102529.59
2022-11-26T22:16:20.934Z,102522.69
2022-11-26T22:18:48.461Z,102523.56
2022-11-26T22:21:19.026Z,102527.00
2022-11-26T22:23:46.085Z,102523.56
2022-11-26T22:26:12.731Z,102528.69
2022-11-26T22:28:39.707Z,102527.84
2022-11-26T22:31:09.460Z,102528.69
2022-11-26T22:33:35.939Z,102529.53
2022-11-26T22:36:02.691Z,102523.53
2022-11-26T22:38:29.141Z,102520.09
2022-11-26T22:41:00.274Z,102512.34
2022-11-26T22:43:26.710Z,102515.75
2022-11-26T22:45:53.250Z,102510.63
2022-11-26T22:48:19.716Z,102508.00
2022-11-26T22:50:53.647Z,102505.44
2022-11-26T22:53:21.301Z,102499.41
2022-11-26T22:55:55.990Z,102499.41
2022-11-26T22:58:24.321Z,102491.69
2022-11-26T23:00:54.092Z,102496.81
2022-11-26T23:03:20.861Z,102498.53
2022-11-26T23:05:47.865Z,102492.50
2022-11-26T23:08:15.433Z,102480.47
2022-11-26T23:10:42.391Z,102483.06
2022-11-26T23:13:13.597Z,102477.91
2022-11-26T23:15:44.668Z,102469.28
2022-11-26T23:18:13.513Z,102462.38
2022-11-26T23:20:40.436Z,102467.56
2022-11-26T23:23:07.043Z,102460.66
2022-11-26T23:25:38.454Z,102456.38
2022-11-26T23:28:06.905Z,102456.38
2022-11-26T23:30:34.510Z,102439.16
2022-11-26T23:33:01.192Z,102441.75
2022-11-26T23:35:28.009Z,102430.50
2022-11-26T23:37:54.440Z,102433.09
2022-11-26T23:40:20.953Z,102434.81
2022-11-26T23:42:47.551Z,102430.50
2022-11-26T23:45:13.984Z,102433.09
2022-11-26T23:47:40.420Z,102427.06
2022-11-26T23:50:07.816Z,102416.75
2022-11-26T23:52:35.710Z,102419.34
2022-11-26T23:55:02.280Z,102415.88
2022-11-26T23:57:28.761Z,102414.19
2022-11-26T23:59:55.191Z,102404.72
